sensor_id;sensor_type;location;lat;lon;timestamp;temperature;humidity
64939;DHT22;51453;47.738;7.420;2023-03-05T00:00:48;-1.10;99.90
64939;DHT22;51453;47.738;7.420;2023-03-05T00:03:14;-1.00;99.90
64939;DHT22;51453;47.738;7.420;2023-03-05T00:05:39;-1.00;99.90
64939;DHT22;51453;47.738;7.420;2023-03-05T00:08:06;-1.00;99.90
64939;DHT22;51453;47.738;7.420;2023-03-05T00:10:31;-1.10;99.90
64939;DHT22;51453;47.738;7.420;2023-03-05T00:12:57;-1.10;99.90
64939;DHT22;51453;47.738;7.420;2023-03-05T00:15:22;-1.10;99.90
64939;DHT22;51453;47.738;7.420;2023-03-05T00:17:48;-1.20;99.90
64939;DHT22;51453;47.738;7.420;2023-03-05T00:20:14;-1.40;99.90
64939;DHT22;51453;47.738;7.420;2023-03-05T00:22:40;-1.50;99.90
64939;DHT22;51453;47.738;7.420;2023-03-05T00:25:09;-1.60;99.90
64939;DHT22;51453;47.738;7.420;2023-03-05T00:27:35;-1.70;99.90
64939;DHT22;51453;47.738;7.420;2023-03-05T00:30:00;-1.80;99.90
64939;DHT22;51453;47.738;7.420;2023-03-05T00:32:26;-1.90;99.90
64939;DHT22;51453;47.738;7.420;2023-03-05T00:34:51;-1.90;99.90
64939;DHT22;51453;47.738;7.420;2023-03-05T00:37:17;-2.00;99.90
64939;DHT22;51453;47.738;7.420;2023-03-05T00:39:43;-1.90;99.90
64939;DHT22;51453;47.738;7.420;2023-03-05T00:42:08;-2.00;99.90
64939;DHT22;51453;47.738;7.420;2023-03-05T00:44:34;-1.80;99.90
64939;DHT22;51453;47.738;7.420;2023-03-05T00:47:00;-1.80;99.90
64939;DHT22;51453;47.738;7.420;2023-03-05T00:49:25;-1.90;99.90
64939;DHT22;51453;47.738;7.420;2023-03-05T00:51:51;-2.00;99.90
64939;DHT22;51453;47.738;7.420;2023-03-05T00:54:17;-2.10;99.90
64939;DHT22;51453;47.738;7.420;2023-03-05T00:56:42;-2.10;99.90
64939;DHT22;51453;47.738;7.420;2023-03-05T00:59:09;-2.10;99.90
64939;DHT22;51453;47.738;7.420;2023-03-05T01:01:34;-2.20;99.90
64939;DHT22;51453;47.738;7.420;2023-03-05T01:04:00;-2.30;99.90
64939;DHT22;51453;47.738;7.420;2023-03-05T01:06:26;-2.30;99.90
64939;DHT22;51453;47.738;7.420;2023-03-05T01:08:52;-2.40;99.90
64939;DHT22;51453;47.738;7.420;2023-03-05T01:11:18;-2.40;99.90
64939;DHT22;51453;47.738;7.420;2023-03-05T01:13:43;-2.40;99.90
64939;DHT22;51453;47.738;7.420;2023-03-05T01:16:10;-2.40;99.90
64939;DHT22;51453;47.738;7.420;2023-03-05T01:18:37;-2.50;99.90
64939;DHT22;51453;47.738;7.420;2023-03-05T01:21:03;-2.50;99.90
64939;DHT22;51453;47.738;7.420;2023-03-05T01:23:29;-2.60;99.90
64939;DHT22;51453;47.738;7.420;2023-03-05T01:25:57;-2.70;99.90
64939;DHT22;51453;47.738;7.420;2023-03-05T01:28:24;-2.70;99.90
64939;DHT22;51453;47.738;7.420;2023-03-05T01:30:50;-2.70;99.90
64939;DHT22;51453;47.738;7.420;2023-03-05T01:33:15;-2.80;99.90
64939;DHT22;51453;47.738;7.420;2023-03-05T01:35:41;-2.90;99.90
64939;DHT22;51453;47.738;7.420;2023-03-05T01:38:07;-2.90;99.90
64939;DHT22;51453;47.738;7.420;2023-03-05T01:40:32;-2.90;99.90
64939;DHT22;51453;47.738;7.420;2023-03-05T01:43:00;-3.00;99.90
64939;DHT22;51453;47.738;7.420;2023-03-05T01:45:31;-3.00;99.90
64939;DHT22;51453;47.738;7.420;2023-03-05T01:47:57;-3.10;99.90
64939;DHT22;51453;47.738;7.420;2023-03-05T01:50:23;-3.10;99.90
64939;DHT22;51453;47.738;7.420;2023-03-05T01:52:56;-3.10;99.90
64939;DHT22;51453;47.738;7.420;2023-03-05T01:55:24;-3.00;99.90
64939;DHT22;51453;47.738;7.420;2023-03-05T01:58:03;-3.00;99.90
64939;DHT22;51453;47.738;7.420;2023-03-05T02:00:34;-2.90;99.90
64939;DHT22;51453;47.738;7.420;2023-03-05T02:03:04;-3.00;99.90
64939;DHT22;51453;47.738;7.420;2023-03-05T02:05:33;-2.90;99.90
64939;DHT22;51453;47.738;7.420;2023-03-05T02:08:04;-3.00;99.90
64939;DHT22;51453;47.738;7.420;2023-03-05T02:10:33;-3.00;99.90
64939;DHT22;51453;47.738;7.420;2023-03-05T02:13:01;-3.00;99.90
64939;DHT22;51453;47.738;7.420;2023-03-05T02:15:29;-3.00;99.90
64939;DHT22;51453;47.738;7.420;2023-03-05T02:17:55;-3.00;99.90
64939;DHT22;51453;47.738;7.420;2023-03-05T02:20:27;-3.00;99.90
64939;DHT22;51453;47.738;7.420;2023-03-05T02:22:53;-3.00;99.90
64939;DHT22;51453;47.738;7.420;2023-03-05T02:25:26;-3.00;99.90
64939;DHT22;51453;47.738;7.420;2023-03-05T02:28:40;-3.10;99.90
64939;DHT22;51453;47.738;7.420;2023-03-05T02:31:16;-3.10;99.90
64939;DHT22;51453;47.738;7.420;2023-03-05T02:33:42;-3.10;99.90
64939;DHT22;51453;47.738;7.420;2023-03-05T02:36:08;-3.10;99.90
64939;DHT22;51453;47.738;7.420;2023-03-05T02:38:35;-3.10;99.90
64939;DHT22;51453;47.738;7.420;2023-03-05T02:41:00;-3.10;99.90
64939;DHT22;51453;47.738;7.420;2023-03-05T02:43:26;-3.20;99.90
64939;DHT22;51453;47.738;7.420;2023-03-05T02:45:52;-3.20;99.90
64939;DHT22;51453;47.738;7.420;2023-03-05T02:48:17;-3.30;99.90
64939;DHT22;51453;47.738;7.420;2023-03-05T02:50:44;-3.30;99.90
64939;DHT22;51453;47.738;7.420;2023-03-05T02:53:10;-3.40;99.90
64939;DHT22;51453;47.738;7.420;2023-03-05T02:55:36;-3.40;99.90
64939;DHT22;51453;47.738;7.420;2023-03-05T02:58:02;-3.40;99.90
64939;DHT22;51453;47.738;7.420;2023-03-05T03:00:28;-3.40;99.90
64939;DHT22;51453;47.738;7.420;2023-03-05T03:02:53;-3.40;99.90
64939;DHT22;51453;47.738;7.420;2023-03-05T03:05:19;-3.40;99.90
64939;DHT22;51453;47.738;7.420;2023-03-05T03:07:45;-3.30;99.90
64939;DHT22;51453;47.738;7.420;2023-03-05T03:10:11;-3.30;99.90
64939;DHT22;51453;47.738;7.420;2023-03-05T03:12:40;-3.30;99.90
64939;DHT22;51453;47.738;7.420;2023-03-05T03:15:08;-3.30;99.90
64939;DHT22;51453;47.738;7.420;2023-03-05T03:17:35;-3.20;99.90
64939;DHT22;51453;47.738;7.420;2023-03-05T03:20:02;-3.10;99.90
64939;DHT22;51453;47.738;7.420;2023-03-05T03:22:28;-3.00;99.90
64939;DHT22;51453;47.738;7.420;2023-03-05T03:24:54;-3.00;99.90
64939;DHT22;51453;47.738;7.420;2023-03-05T03:27:21;-3.00;99.90
64939;DHT22;51453;47.738;7.420;2023-03-05T03:29:47;-3.00;99.90
64939;DHT22;51453;47.738;7.420;2023-03-05T03:32:13;-3.00;99.90
64939;DHT22;51453;47.738;7.420;2023-03-05T03:34:39;-3.00;99.90
64939;DHT22;51453;47.738;7.420;2023-03-05T03:37:04;-3.10;99.90
64939;DHT22;51453;47.738;7.420;2023-03-05T03:39:30;-3.10;99.90
64939;DHT22;51453;47.738;7.420;2023-03-05T03:41:56;-3.20;99.90
64939;DHT22;51453;47.738;7.420;2023-03-05T03:44:22;-3.20;99.90
64939;DHT22;51453;47.738;7.420;2023-03-05T03:46:49;-3.30;99.90
64939;DHT22;51453;47.738;7.420;2023-03-05T03:49:17;-3.30;99.90
64939;DHT22;51453;47.738;7.420;2023-03-05T03:51:47;-3.40;99.90
64939;DHT22;51453;47.738;7.420;2023-03-05T03:54:15;-3.40;99.90
64939;DHT22;51453;47.738;7.420;2023-03-05T03:56:41;-3.40;99.90
64939;DHT22;51453;47.738;7.420;2023-03-05T03:59:07;-3.40;99.90
64939;DHT22;51453;47.738;7.420;2023-03-05T04:01:32;-3.40;99.90
64939;DHT22;51453;47.738;7.420;2023-03-05T04:03:58;-3.30;99.90
64939;DHT22;51453;47.738;7.420;2023-03-05T04:06:24;-3.30;99.90
64939;DHT22;51453;47.738;7.420;2023-03-05T04:08:50;-3.40;99.90
64939;DHT22;51453;47.738;7.420;2023-03-05T04:11:16;-3.40;99.90
64939;DHT22;51453;47.738;7.420;2023-03-05T04:13:44;-3.50;99.90
64939;DHT22;51453;47.738;7.420;2023-03-05T04:16:10;-3.60;99.90
64939;DHT22;51453;47.738;7.420;2023-03-05T04:18:36;-3.60;99.90
64939;DHT22;51453;47.738;7.420;2023-03-05T04:21:02;-3.60;99.90
64939;DHT22;51453;47.738;7.420;2023-03-05T04:23:27;-3.60;99.90
64939;DHT22;51453;47.738;7.420;2023-03-05T04:25:53;-3.60;99.90
64939;DHT22;51453;47.738;7.420;2023-03-05T04:28:19;-3.60;99.90
64939;DHT22;51453;47.738;7.420;2023-03-05T04:30:44;-3.60;99.90
64939;DHT22;51453;47.738;7.420;2023-03-05T04:33:10;-3.70;99.90
64939;DHT22;51453;47.738;7.420;2023-03-05T04:35:36;-3.70;99.90
64939;DHT22;51453;47.738;7.420;2023-03-05T04:38:02;-3.80;99.90
64939;DHT22;51453;47.738;7.420;2023-03-05T04:40:27;-3.80;99.90
64939;DHT22;51453;47.738;7.420;2023-03-05T04:42:53;-3.90;99.90
64939;DHT22;51453;47.738;7.420;2023-03-05T04:45:19;-4.00;99.90
64939;DHT22;51453;47.738;7.420;2023-03-05T04:47:44;-4.00;99.90
64939;DHT22;51453;47.738;7.420;2023-03-05T04:50:11;-4.00;99.90
64939;DHT22;51453;47.738;7.420;2023-03-05T04:52:42;-4.00;99.90
64939;DHT22;51453;47.738;7.420;2023-03-05T04:55:08;-4.00;99.90
64939;DHT22;51453;47.738;7.420;2023-03-05T04:57:34;-4.00;99.90
64939;DHT22;51453;47.738;7.420;2023-03-05T05:00:00;-4.10;99.90
64939;DHT22;51453;47.738;7.420;2023-03-05T05:02:26;-4.10;99.90
64939;DHT22;51453;47.738;7.420;2023-03-05T05:04:52;-4.10;99.90
64939;DHT22;51453;47.738;7.420;2023-03-05T05:07:18;-4.10;99.90
64939;DHT22;51453;47.738;7.420;2023-03-05T05:09:44;-4.20;99.90
64939;DHT22;51453;47.738;7.420;2023-03-05T05:12:09;-4.10;99.90
64939;DHT22;51453;47.738;7.420;2023-03-05T05:14:35;-4.10;99.90
64939;DHT22;51453;47.738;7.420;2023-03-05T05:17:01;-4.10;99.90
64939;DHT22;51453;47.738;7.420;2023-03-05T05:19:30;-4.10;99.90
64939;DHT22;51453;47.738;7.420;2023-03-05T05:21:56;-4.10;99.90
64939;DHT22;51453;47.738;7.420;2023-03-05T05:24:22;-4.10;99.90
64939;DHT22;51453;47.738;7.420;2023-03-05T05:26:48;-4.10;99.90
64939;DHT22;51453;47.738;7.420;2023-03-05T05:29:13;-4.10;99.90
64939;DHT22;51453;47.738;7.420;2023-03-05T05:31:39;-4.20;99.90
64939;DHT22;51453;47.738;7.420;2023-03-05T05:34:05;-4.20;99.90
64939;DHT22;51453;47.738;7.420;2023-03-05T05:36:30;-4.20;99.90
64939;DHT22;51453;47.738;7.420;2023-03-05T05:38:56;-4.30;99.90
64939;DHT22;51453;47.738;7.420;2023-03-05T05:41:22;-4.20;99.90
64939;DHT22;51453;47.738;7.420;2023-03-05T05:43:48;-4.30;99.90
64939;DHT22;51453;47.738;7.420;2023-03-05T05:46:16;-4.30;99.90
64939;DHT22;51453;47.738;7.420;2023-03-05T05:48:42;-4.30;99.90
64939;DHT22;51453;47.738;7.420;2023-03-05T05:51:13;-4.40;99.90
64939;DHT22;51453;47.738;7.420;2023-03-05T05:53:39;-4.30;99.90
64939;DHT22;51453;47.738;7.420;2023-03-05T05:56:06;-4.40;99.90
64939;DHT22;51453;47.738;7.420;2023-03-05T05:58:32;-4.40;99.90
64939;DHT22;51453;47.738;7.420;2023-03-05T06:00:58;-4.30;99.90
64939;DHT22;51453;47.738;7.420;2023-03-05T06:03:24;-4.30;99.90
64939;DHT22;51453;47.738;7.420;2023-03-05T06:05:50;-4.30;99.90
64939;DHT22;51453;47.738;7.420;2023-03-05T06:08:17;-4.20;99.90
64939;DHT22;51453;47.738;7.420;2023-03-05T06:10:42;-4.20;99.90
64939;DHT22;51453;47.738;7.420;2023-03-05T06:13:08;-4.10;99.90
64939;DHT22;51453;47.738;7.420;2023-03-05T06:15:34;-4.00;99.90
64939;DHT22;51453;47.738;7.420;2023-03-05T06:17:59;-3.90;99.90
64939;DHT22;51453;47.738;7.420;2023-03-05T06:20:27;-3.90;99.90
64939;DHT22;51453;47.738;7.420;2023-03-05T06:22:53;-3.80;99.90
64939;DHT22;51453;47.738;7.420;2023-03-05T06:25:19;-3.80;99.90
64939;DHT22;51453;47.738;7.420;2023-03-05T06:27:44;-3.70;99.90
64939;DHT22;51453;47.738;7.420;2023-03-05T06:30:11;-3.80;99.90
64939;DHT22;51453;47.738;7.420;2023-03-05T06:32:37;-3.80;99.90
64939;DHT22;51453;47.738;7.420;2023-03-05T06:35:03;-3.90;99.90
64939;DHT22;51453;47.738;7.420;2023-03-05T06:37:29;-3.90;99.90
64939;DHT22;51453;47.738;7.420;2023-03-05T06:39:54;-3.80;99.90
64939;DHT22;51453;47.738;7.420;2023-03-05T06:42:20;-3.80;99.90
64939;DHT22;51453;47.738;7.420;2023-03-05T06:44:47;-3.70;99.90
64939;DHT22;51453;47.738;7.420;2023-03-05T06:47:12;-3.60;99.90
64939;DHT22;51453;47.738;7.420;2023-03-05T06:49:39;-3.60;99.90
64939;DHT22;51453;47.738;7.420;2023-03-05T06:52:05;-3.50;99.90
64939;DHT22;51453;47.738;7.420;2023-03-05T06:54:31;-3.30;99.90
64939;DHT22;51453;47.738;7.420;2023-03-05T06:56:57;-3.20;99.90
64939;DHT22;51453;47.738;7.420;2023-03-05T06:59:23;-3.10;99.90
64939;DHT22;51453;47.738;7.420;2023-03-05T07:01:49;-3.00;99.90
64939;DHT22;51453;47.738;7.420;2023-03-05T07:04:14;-2.90;99.90
64939;DHT22;51453;47.738;7.420;2023-03-05T07:06:41;-2.80;99.90
64939;DHT22;51453;47.738;7.420;2023-03-05T07:09:10;-2.60;99.90
64939;DHT22;51453;47.738;7.420;2023-03-05T07:11:37;-2.60;99.90
64939;DHT22;51453;47.738;7.420;2023-03-05T07:14:03;-2.40;99.90
64939;DHT22;51453;47.738;7.420;2023-03-05T07:16:31;-2.30;99.90
64939;DHT22;51453;47.738;7.420;2023-03-05T07:18:58;-2.10;99.90
64939;DHT22;51453;47.738;7.420;2023-03-05T07:21:26;-2.00;99.90
64939;DHT22;51453;47.738;7.420;2023-03-05T07:23:54;-1.90;99.90
64939;DHT22;51453;47.738;7.420;2023-03-05T07:26:20;-1.80;99.90
64939;DHT22;51453;47.738;7.420;2023-03-05T07:28:46;-1.60;99.90
64939;DHT22;51453;47.738;7.420;2023-03-05T07:31:14;-1.40;99.90
64939;DHT22;51453;47.738;7.420;2023-03-05T07:33:41;-1.10;99.90
64939;DHT22;51453;47.738;7.420;2023-03-05T07:36:08;-0.90;99.90
64939;DHT22;51453;47.738;7.420;2023-03-05T07:38:35;-0.70;99.90
64939;DHT22;51453;47.738;7.420;2023-03-05T07:41:06;-0.50;99.90
64939;DHT22;51453;47.738;7.420;2023-03-05T07:43:32;-0.30;99.90
64939;DHT22;51453;47.738;7.420;2023-03-05T07:45:58;-0.10;99.90
64939;DHT22;51453;47.738;7.420;2023-03-05T07:48:24;0.10;99.90
64939;DHT22;51453;47.738;7.420;2023-03-05T07:50:50;0.40;99.90
64939;DHT22;51453;47.738;7.420;2023-03-05T07:53:24;0.60;99.90
64939;DHT22;51453;47.738;7.420;2023-03-05T07:55:49;0.80;99.90
64939;DHT22;51453;47.738;7.420;2023-03-05T07:58:15;1.00;99.90
64939;DHT22;51453;47.738;7.420;2023-03-05T08:00:40;1.20;99.90
64939;DHT22;51453;47.738;7.420;2023-03-05T08:03:06;1.40;99.90
64939;DHT22;51453;47.738;7.420;2023-03-05T08:05:32;1.60;99.90
64939;DHT22;51453;47.738;7.420;2023-03-05T08:07:58;1.90;99.90
64939;DHT22;51453;47.738;7.420;2023-03-05T08:10:23;2.00;99.90
64939;DHT22;51453;47.738;7.420;2023-03-05T08:12:49;2.20;99.90
64939;DHT22;51453;47.738;7.420;2023-03-05T08:15:15;2.40;99.90
64939;DHT22;51453;47.738;7.420;2023-03-05T08:17:41;2.50;99.90
64939;DHT22;51453;47.738;7.420;2023-03-05T08:20:07;2.60;99.90
64939;DHT22;51453;47.738;7.420;2023-03-05T08:22:38;2.80;99.90
64939;DHT22;51453;47.738;7.420;2023-03-05T08:25:05;2.90;99.90
64939;DHT22;51453;47.738;7.420;2023-03-05T08:27:31;3.00;99.90
64939;DHT22;51453;47.738;7.420;2023-03-05T08:29:59;3.20;99.90
64939;DHT22;51453;47.738;7.420;2023-03-05T08:32:25;3.40;99.90
64939;DHT22;51453;47.738;7.420;2023-03-05T08:34:54;3.50;99.90
64939;DHT22;51453;47.738;7.420;2023-03-05T08:37:21;3.60;99.90
64939;DHT22;51453;47.738;7.420;2023-03-05T08:39:47;3.70;99.90
64939;DHT22;51453;47.738;7.420;2023-03-05T08:42:12;3.70;99.90
64939;DHT22;51453;47.738;7.420;2023-03-05T08:44:38;3.90;99.90
64939;DHT22;51453;47.738;7.420;2023-03-05T08:47:03;4.10;99.90
64939;DHT22;51453;47.738;7.420;2023-03-05T08:49:29;4.20;99.90
64939;DHT22;51453;47.738;7.420;2023-03-05T08:51:55;4.50;99.90
64939;DHT22;51453;47.738;7.420;2023-03-05T08:54:20;4.60;99.90
64939;DHT22;51453;47.738;7.420;2023-03-05T08:56:46;4.60;99.90
64939;DHT22;51453;47.738;7.420;2023-03-05T08:59:12;4.60;99.90
64939;DHT22;51453;47.738;7.420;2023-03-05T09:01:37;4.60;99.90
64939;DHT22;51453;47.738;7.420;2023-03-05T09:04:03;4.50;99.90
64939;DHT22;51453;47.738;7.420;2023-03-05T09:06:28;4.40;99.90
64939;DHT22;51453;47.738;7.420;2023-03-05T09:08:54;4.50;99.90
64939;DHT22;51453;47.738;7.420;2023-03-05T09:11:20;4.40;99.90
64939;DHT22;51453;47.738;7.420;2023-03-05T09:13:46;4.50;99.90
64939;DHT22;51453;47.738;7.420;2023-03-05T09:16:14;4.50;99.90
64939;DHT22;51453;47.738;7.420;2023-03-05T09:18:40;4.50;99.90
64939;DHT22;51453;47.738;7.420;2023-03-05T09:21:07;4.60;99.90
64939;DHT22;51453;47.738;7.420;2023-03-05T09:23:33;4.40;99.90
64939;DHT22;51453;47.738;7.420;2023-03-05T09:25:59;4.40;99.90
64939;DHT22;51453;47.738;7.420;2023-03-05T09:28:24;4.40;99.90
64939;DHT22;51453;47.738;7.420;2023-03-05T09:30:50;4.50;99.90
64939;DHT22;51453;47.738;7.420;2023-03-05T09:33:16;4.50;99.90
64939;DHT22;51453;47.738;7.420;2023-03-05T09:35:41;4.60;99.90
64939;DHT22;51453;47.738;7.420;2023-03-05T09:38:07;4.70;99.90
64939;DHT22;51453;47.738;7.420;2023-03-05T09:40:58;4.80;99.90
64939;DHT22;51453;47.738;7.420;2023-03-05T09:44:01;4.80;99.90
64939;DHT22;51453;47.738;7.420;2023-03-05T09:46:27;4.80;99.90
64939;DHT22;51453;47.738;7.420;2023-03-05T09:51:37;4.90;99.90
64939;DHT22;51453;47.738;7.420;2023-03-05T09:54:43;4.90;99.90
64939;DHT22;51453;47.738;7.420;2023-03-05T09:57:21;5.10;99.90
64939;DHT22;51453;47.738;7.420;2023-03-05T09:59:57;5.20;99.90
64939;DHT22;51453;47.738;7.420;2023-03-05T10:02:34;5.30;99.90
64939;DHT22;51453;47.738;7.420;2023-03-05T10:05:11;5.50;99.90
64939;DHT22;51453;47.738;7.420;2023-03-05T10:07:44;5.60;99.90
64939;DHT22;51453;47.738;7.420;2023-03-05T10:10:17;5.50;99.90
64939;DHT22;51453;47.738;7.420;2023-03-05T10:12:52;5.50;99.90
64939;DHT22;51453;47.738;7.420;2023-03-05T10:18:36;5.70;99.90
64939;DHT22;51453;47.738;7.420;2023-03-05T10:21:19;5.90;99.90
64939;DHT22;51453;47.738;7.420;2023-03-05T10:26:51;6.20;99.90
64939;DHT22;51453;47.738;7.420;2023-03-05T10:29:34;6.40;99.90
64939;DHT22;51453;47.738;7.420;2023-03-05T10:37:35;6.40;99.90
64939;DHT22;51453;47.738;7.420;2023-03-05T10:40:25;6.50;99.90
64939;DHT22;51453;47.738;7.420;2023-03-05T10:43:11;6.70;99.90
64939;DHT22;51453;47.738;7.420;2023-03-05T10:45:41;6.80;99.90
64939;DHT22;51453;47.738;7.420;2023-03-05T10:51:28;7.00;99.90
64939;DHT22;51453;47.738;7.420;2023-03-05T10:56:39;7.10;99.90
64939;DHT22;51453;47.738;7.420;2023-03-05T10:59:05;7.20;99.90
64939;DHT22;51453;47.738;7.420;2023-03-05T11:01:31;7.40;99.90
64939;DHT22;51453;47.738;7.420;2023-03-05T11:04:05;7.40;99.90
64939;DHT22;51453;47.738;7.420;2023-03-05T11:06:40;7.40;99.90
64939;DHT22;51453;47.738;7.420;2023-03-05T11:09:28;7.30;99.90
64939;DHT22;51453;47.738;7.420;2023-03-05T11:14:30;7.00;99.90
64939;DHT22;51453;47.738;7.420;2023-03-05T11:16:59;6.70;99.90
64939;DHT22;51453;47.738;7.420;2023-03-05T11:19:30;6.70;99.90
64939;DHT22;51453;47.738;7.420;2023-03-05T11:22:15;6.50;99.90
64939;DHT22;51453;47.738;7.420;2023-03-05T11:24:42;6.50;99.90
64939;DHT22;51453;47.738;7.420;2023-03-05T11:27:33;6.60;99.90
64939;DHT22;51453;47.738;7.420;2023-03-05T11:29:59;6.70;99.90
64939;DHT22;51453;47.738;7.420;2023-03-05T11:32:26;6.70;99.90
64939;DHT22;51453;47.738;7.420;2023-03-05T11:34:54;6.80;99.90
64939;DHT22;51453;47.738;7.420;2023-03-05T11:37:30;6.90;99.90
64939;DHT22;51453;47.738;7.420;2023-03-05T11:40:19;7.00;99.90
64939;DHT22;51453;47.738;7.420;2023-03-05T11:42:54;7.00;99.90
64939;DHT22;51453;47.738;7.420;2023-03-05T11:45:20;6.90;99.90
64939;DHT22;51453;47.738;7.420;2023-03-05T11:47:47;6.90;99.90
64939;DHT22;51453;47.738;7.420;2023-03-05T11:50:23;6.70;99.90
64939;DHT22;51453;47.738;7.420;2023-03-05T11:52:52;6.70;99.90
64939;DHT22;51453;47.738;7.420;2023-03-05T11:58:26;6.80;99.90
64939;DHT22;51453;47.738;7.420;2023-03-05T12:00:53;6.90;99.90
64939;DHT22;51453;47.738;7.420;2023-03-05T12:03:31;6.90;99.90
64939;DHT22;51453;47.738;7.420;2023-03-05T12:08:47;7.20;99.90
64939;DHT22;51453;47.738;7.420;2023-03-05T12:11:19;7.20;99.90
64939;DHT22;51453;47.738;7.420;2023-03-05T12:16:43;7.70;99.90
64939;DHT22;51453;47.738;7.420;2023-03-05T12:19:36;8.00;99.90
64939;DHT22;51453;47.738;7.420;2023-03-05T12:22:20;7.90;99.90
64939;DHT22;51453;47.738;7.420;2023-03-05T12:24:46;7.90;99.90
64939;DHT22;51453;47.738;7.420;2023-03-05T12:27:14;7.90;99.90
64939;DHT22;51453;47.738;7.420;2023-03-05T12:29:50;8.00;99.90
64939;DHT22;51453;47.738;7.420;2023-03-05T12:35:03;8.30;99.90
64939;DHT22;51453;47.738;7.420;2023-03-05T12:47:44;8.40;99.90
64939;DHT22;51453;47.738;7.420;2023-03-05T12:58:12;9.30;99.90
64939;DHT22;51453;47.738;7.420;2023-03-05T13:00:41;9.10;99.90
64939;DHT22;51453;47.738;7.420;2023-03-05T13:03:11;8.60;99.90
64939;DHT22;51453;47.738;7.420;2023-03-05T13:05:48;8.80;99.90
64939;DHT22;51453;47.738;7.420;2023-03-05T13:08:21;8.50;99.90
64939;DHT22;51453;47.738;7.420;2023-03-05T13:13:21;8.40;99.90
64939;DHT22;51453;47.738;7.420;2023-03-05T13:15:49;8.60;99.90
64939;DHT22;51453;47.738;7.420;2023-03-05T13:18:24;8.80;99.90
64939;DHT22;51453;47.738;7.420;2023-03-05T13:21:16;8.70;99.90
64939;DHT22;51453;47.738;7.420;2023-03-05T13:24:18;8.60;99.90
64939;DHT22;51453;47.738;7.420;2023-03-05T13:26:44;8.50;99.90
64939;DHT22;51453;47.738;7.420;2023-03-05T13:31:43;8.80;99.90
64939;DHT22;51453;47.738;7.420;2023-03-05T13:34:31;8.90;99.90
64939;DHT22;51453;47.738;7.420;2023-03-05T13:37:01;9.00;99.90
64939;DHT22;51453;47.738;7.420;2023-03-05T13:39:31;9.00;99.90
64939;DHT22;51453;47.738;7.420;2023-03-05T13:42:04;9.00;99.90
64939;DHT22;51453;47.738;7.420;2023-03-05T13:44:31;9.10;99.90
64939;DHT22;51453;47.738;7.420;2023-03-05T13:47:16;8.90;99.90
64939;DHT22;51453;47.738;7.420;2023-03-05T13:49:43;9.10;99.90
64939;DHT22;51453;47.738;7.420;2023-03-05T13:52:09;9.20;99.90
64939;DHT22;51453;47.738;7.420;2023-03-05T13:54:35;9.20;99.90
64939;DHT22;51453;47.738;7.420;2023-03-05T13:57:03;9.00;99.90
64939;DHT22;51453;47.738;7.420;2023-03-05T13:59:31;8.60;99.90
64939;DHT22;51453;47.738;7.420;2023-03-05T14:02:00;8.70;99.90
64939;DHT22;51453;47.738;7.420;2023-03-05T14:04:45;8.80;99.90
64939;DHT22;51453;47.738;7.420;2023-03-05T14:07:37;8.90;99.90
64939;DHT22;51453;47.738;7.420;2023-03-05T14:10:27;8.90;99.90
64939;DHT22;51453;47.738;7.420;2023-03-05T14:12:54;9.20;99.90
64939;DHT22;51453;47.738;7.420;2023-03-05T14:15:33;9.30;99.90
64939;DHT22;51453;47.738;7.420;2023-03-05T14:20:39;8.90;99.90
64939;DHT22;51453;47.738;7.420;2023-03-05T14:23:44;8.70;99.90
64939;DHT22;51453;47.738;7.420;2023-03-05T14:26:34;8.60;99.90
64939;DHT22;51453;47.738;7.420;2023-03-05T14:31:37;8.70;99.90
64939;DHT22;51453;47.738;7.420;2023-03-05T14:34:20;8.80;99.90
64939;DHT22;51453;47.738;7.420;2023-03-05T14:36:48;8.50;99.90
64939;DHT22;51453;47.738;7.420;2023-03-05T14:39:44;8.30;99.90
64939;DHT22;51453;47.738;7.420;2023-03-05T14:42:26;8.40;99.90
64939;DHT22;51453;47.738;7.420;2023-03-05T14:44:52;8.70;99.90
64939;DHT22;51453;47.738;7.420;2023-03-05T14:47:23;8.50;99.90
64939;DHT22;51453;47.738;7.420;2023-03-05T14:49:48;8.50;99.90
64939;DHT22;51453;47.738;7.420;2023-03-05T14:52:16;8.40;99.90
64939;DHT22;51453;47.738;7.420;2023-03-05T14:54:42;8.40;99.90
64939;DHT22;51453;47.738;7.420;2023-03-05T14:57:22;8.50;99.90
64939;DHT22;51453;47.738;7.420;2023-03-05T14:59:48;8.50;99.90
64939;DHT22;51453;47.738;7.420;2023-03-05T15:02:19;8.40;99.90
64939;DHT22;51453;47.738;7.420;2023-03-05T15:04:45;8.50;99.90
64939;DHT22;51453;47.738;7.420;2023-03-05T15:07:24;8.50;99.90
64939;DHT22;51453;47.738;7.420;2023-03-05T15:09:51;8.50;99.90
64939;DHT22;51453;47.738;7.420;2023-03-05T15:12:17;8.30;99.90
64939;DHT22;51453;47.738;7.420;2023-03-05T15:14:43;8.30;99.90
64939;DHT22;51453;47.738;7.420;2023-03-05T15:17:21;8.20;99.90
64939;DHT22;51453;47.738;7.420;2023-03-05T15:19:48;8.00;99.90
64939;DHT22;51453;47.738;7.420;2023-03-05T15:22:14;8.10;99.90
64939;DHT22;51453;47.738;7.420;2023-03-05T15:24:41;8.30;99.90
64939;DHT22;51453;47.738;7.420;2023-03-05T15:27:08;8.30;99.90
64939;DHT22;51453;47.738;7.420;2023-03-05T15:29:34;8.10;99.90
64939;DHT22;51453;47.738;7.420;2023-03-05T15:32:00;8.00;99.90
64939;DHT22;51453;47.738;7.420;2023-03-05T15:34:27;7.90;99.90
64939;DHT22;51453;47.738;7.420;2023-03-05T15:36:53;7.90;99.90
64939;DHT22;51453;47.738;7.420;2023-03-05T15:39:21;7.90;99.90
64939;DHT22;51453;47.738;7.420;2023-03-05T15:41:49;7.90;99.90
64939;DHT22;51453;47.738;7.420;2023-03-05T15:44:14;7.90;99.90
64939;DHT22;51453;47.738;7.420;2023-03-05T15:46:40;7.90;99.90
64939;DHT22;51453;47.738;7.420;2023-03-05T15:49:06;7.70;99.90
64939;DHT22;51453;47.738;7.420;2023-03-05T15:51:31;7.60;99.90
64939;DHT22;51453;47.738;7.420;2023-03-05T15:53:57;7.60;99.90
64939;DHT22;51453;47.738;7.420;2023-03-05T15:56:23;7.60;99.90
64939;DHT22;51453;47.738;7.420;2023-03-05T15:58:49;7.50;99.90
64939;DHT22;51453;47.738;7.420;2023-03-05T16:01:17;7.40;99.90
64939;DHT22;51453;47.738;7.420;2023-03-05T16:03:48;7.40;99.90
64939;DHT22;51453;47.738;7.420;2023-03-05T16:06:14;7.30;99.90
64939;DHT22;51453;47.738;7.420;2023-03-05T16:08:44;7.30;99.90
64939;DHT22;51453;47.738;7.420;2023-03-05T16:11:11;7.20;99.90
64939;DHT22;51453;47.738;7.420;2023-03-05T16:13:37;7.20;99.90
64939;DHT22;51453;47.738;7.420;2023-03-05T16:16:05;7.20;99.90
64939;DHT22;51453;47.738;7.420;2023-03-05T16:18:31;7.00;99.90
64939;DHT22;51453;47.738;7.420;2023-03-05T16:20:59;7.00;99.90
64939;DHT22;51453;47.738;7.420;2023-03-05T16:23:25;7.00;99.90
64939;DHT22;51453;47.738;7.420;2023-03-05T16:25:50;7.00;99.90
64939;DHT22;51453;47.738;7.420;2023-03-05T16:28:16;7.00;99.90
64939;DHT22;51453;47.738;7.420;2023-03-05T16:30:42;7.00;99.90
64939;DHT22;51453;47.738;7.420;2023-03-05T16:33:08;7.00;99.90
64939;DHT22;51453;47.738;7.420;2023-03-05T16:35:34;7.00;99.90
64939;DHT22;51453;47.738;7.420;2023-03-05T16:38:00;6.90;99.90
64939;DHT22;51453;47.738;7.420;2023-03-05T16:40:26;6.90;99.90
64939;DHT22;51453;47.738;7.420;2023-03-05T16:42:52;6.90;99.90
64939;DHT22;51453;47.738;7.420;2023-03-05T16:45:18;6.80;99.90
64939;DHT22;51453;47.738;7.420;2023-03-05T16:47:43;6.80;99.90
64939;DHT22;51453;47.738;7.420;2023-03-05T16:50:10;6.80;99.90